Plentywood, MT

4:49 PM MDT on July 27, 2016 (GMT -0600)
Weidner S.E. edge Plentywood | | Change Station

Elev 2041 ft 48.77 °N, 104.55 °W | Updated 14 minutes ago

Mostly Cloudy
Mostly Cloudy
82.9 °F
Feels Like 82 °F
N
1.7
Wind Variable Wind from NNW

Today
High -- | Low -- °F
--% Chance of Precip.
Yesterday
High -- | Low -- °F
Precip. -- in
Pressure 30.17 in
Visibility 10.0 miles
Clouds Scattered Clouds 6500 ft
Mostly Cloudy 9000 ft
Heat Index 82 °F
Dew Point 53 °F
Humidity 36%
Rainfall 0.00 in
Snow Depth Not available.
5:26 AM 8:43 PM
Last Quarter, 39% visible
METAR KD50 272235Z AUTO 09006KT 10SM SCT065 BKN090 22/17 A3017 RMK AO2
Pressure 30.17 in
Visibility 10.0 miles
Clouds Scattered Clouds 6500 ft
Mostly Cloudy 9000 ft
Heat Index 82 °F
Dew Point 53 °F
Humidity 36%
Rainfall 0.00 in
Snow Depth Not available.
5:26 AM 8:43 PM
Last Quarter, 39% visible
METAR KD50 272235Z AUTO 09006KT 10SM SCT065 BKN090 22/17 A3017 RMK AO2

10-Day Weather Forecast

Almanac

Astronomy

Jul. 27, 2016 Rise Set
Actual Time
Civil Twilight
Nautical Twilight
Astronomical Twilight
Moon
Length of Visible Light
Length of Day
Tomorrow will be .
, % of the Moon is Illuminated

Today's Extremes

State Highs State Lows

Community

WunderPhotos

Upload Photos

1,927,951 photos uploaded!

WunderBlog® & News

Nearby

Air Quality

  Air Quality AQ Index Pollutant
Not available.

Snow Depth

Station Depth Elevation

Earthquake Activity

City Distance Mag. Time & Date
Minimum magnitude displayed is 2.5.

Coastal Water Temperatures

Place Temperature

Stations

Nearby Weather Stations

Station Location Temp. Windchill Dew Point Humidity Wind Precip. Elev Updated Type
                   

Watches & Warnings

There are currently no watches in effect.